createdAt,value
2022-08-07T00:02:37.372Z,17.90
2022-08-07T00:04:58.577Z,17.80
2022-08-07T00:07:40.396Z,17.80
2022-08-07T00:10:26.091Z,17.80
2022-08-07T00:12:57.801Z,17.80
2022-08-07T00:15:38.096Z,17.80
2022-08-07T00:18:19.706Z,17.70
2022-08-07T00:21:08.287Z,17.70
2022-08-07T00:23:51.854Z,17.70
2022-08-07T00:26:49.388Z,17.60
2022-08-07T00:29:06.624Z,17.60
2022-08-07T00:31:37.846Z,17.50
2022-08-07T00:34:08.902Z,17.50
2022-08-07T00:36:38.587Z,17.50
2022-08-07T00:39:12.844Z,17.60
2022-08-07T00:42:02.601Z,17.60
2022-08-07T00:44:33.624Z,17.50
2022-08-07T00:47:16.165Z,17.40
2022-08-07T00:50:20.814Z,17.40
2022-08-07T00:52:42.024Z,17.30
2022-08-07T00:55:17.404Z,17.40
2022-08-07T00:58:04.622Z,17.20
2022-08-07T01:03:56.206Z,17.30
2022-08-07T01:06:26.904Z,17.40
2022-08-07T01:08:55.693Z,17.40
2022-08-07T01:12:26.519Z,17.30
2022-08-07T01:14:16.584Z,17.20
2022-08-07T01:16:47.368Z,17.10
2022-08-07T01:19:19.660Z,17.10
2022-08-07T01:21:53.361Z,17.00
2022-08-07T01:24:28.716Z,17.10
2022-08-07T01:27:00.969Z,17.10
2022-08-07T01:29:33.683Z,17.00
2022-08-07T01:32:05.537Z,16.90
2022-08-07T01:34:47.144Z,16.90
2022-08-07T01:37:17.304Z,17.10
2022-08-07T01:39:48.394Z,17.00
2022-08-07T01:42:37.806Z,17.00
2022-08-07T01:45:15.721Z,17.00
2022-08-07T01:48:19.666Z,17.00
2022-08-07T01:50:40.278Z,17.00
2022-08-07T01:56:07.254Z,16.90
2022-08-07T01:58:46.468Z,16.90
2022-08-07T02:01:59.247Z,16.80
2022-08-07T02:04:17.575Z,16.80
2022-08-07T02:06:57.333Z,16.80
2022-08-07T02:09:51.646Z,16.80
2022-08-07T02:12:29.077Z,16.90
2022-08-07T02:15:00.667Z,16.80
2022-08-07T02:17:49.566Z,16.80
2022-08-07T02:20:23.803Z,16.80
2022-08-07T02:22:59.697Z,16.80
2022-08-07T02:26:10.547Z,16.70
2022-08-07T02:28:24.428Z,16.80
2022-08-07T02:30:56.188Z,16.60
2022-08-07T02:33:42.259Z,16.60
2022-08-07T02:36:28.290Z,16.60
2022-08-07T02:39:16.058Z,16.60
2022-08-07T02:41:47.337Z,16.60
2022-08-07T02:44:21.108Z,16.60
2022-08-07T02:46:52.564Z,16.60
2022-08-07T02:49:56.390Z,16.60
2022-08-07T02:52:17.209Z,16.60
2022-08-07T02:54:50.611Z,16.60
2022-08-07T02:57:23.759Z,16.50
2022-08-07T03:00:11.013Z,16.50
2022-08-07T03:03:49.642Z,16.50
2022-08-07T03:06:33.082Z,16.40
2022-08-07T03:09:07.645Z,16.40
2022-08-07T03:11:39.253Z,16.40
2022-08-07T03:14:28.250Z,16.40
2022-08-07T03:16:57.659Z,16.40
2022-08-07T03:19:28.897Z,16.30
2022-08-07T03:21:59.266Z,16.30
2022-08-07T03:24:28.046Z,16.40
2022-08-07T03:27:01.902Z,16.40
2022-08-07T03:29:58.867Z,16.40
2022-08-07T03:32:40.250Z,16.30
2022-08-07T03:35:26.253Z,16.30
2022-08-07T03:38:01.864Z,16.30
2022-08-07T03:40:36.458Z,16.30
2022-08-07T03:43:10.113Z,16.20
2022-08-07T03:45:47.884Z,16.20
2022-08-07T03:48:20.207Z,16.20
2022-08-07T03:50:55.643Z,16.30
2022-08-07T03:53:50.056Z,16.30
2022-08-07T03:56:18.517Z,16.20
2022-08-07T03:59:08.706Z,16.20
2022-08-07T04:01:46.050Z,16.20
2022-08-07T04:04:17.889Z,16.20
2022-08-07T04:06:51.587Z,16.20
2022-08-07T04:09:23.305Z,16.30
2022-08-07T04:12:24.747Z,16.30
2022-08-07T04:14:47.808Z,16.30
2022-08-07T04:17:20.830Z,16.30
2022-08-07T04:19:52.397Z,16.20
2022-08-07T04:22:29.191Z,16.30
2022-08-07T04:25:02.081Z,16.10
2022-08-07T04:27:35.406Z,16.10
2022-08-07T04:30:11.903Z,16.00
2022-08-07T04:32:58.242Z,16.00
2022-08-07T04:35:35.073Z,16.00
2022-08-07T04:38:11.523Z,16.00
2022-08-07T04:40:52.979Z,16.00
2022-08-07T04:44:10.687Z,16.00
2022-08-07T04:47:03.873Z,16.00
2022-08-07T04:49:57.725Z,15.90
2022-08-07T04:52:53.469Z,16.00
2022-08-07T04:58:12.540Z,15.90
2022-08-07T04:58:54.603Z,15.90
2022-08-07T05:01:29.914Z,15.80
2022-08-07T05:04:08.710Z,15.80
2022-08-07T05:06:56.494Z,15.90
2022-08-07T05:09:48.569Z,15.90
2022-08-07T05:12:30.490Z,15.90
2022-08-07T05:15:23.128Z,16.00
2022-08-07T05:18:06.123Z,15.90
2022-08-07T05:20:46.188Z,16.10
2022-08-07T05:23:23.230Z,16.00
2022-08-07T05:26:13.786Z,16.00
2022-08-07T05:28:50.100Z,16.00
2022-08-07T05:31:23.344Z,16.10
2022-08-07T05:34:04.556Z,16.20
2022-08-07T05:36:39.129Z,16.20
2022-08-07T05:40:14.236Z,16.10
2022-08-07T05:42:07.537Z,16.20
2022-08-07T05:44:41.533Z,16.20
2022-08-07T05:47:20.002Z,16.30
2022-08-07T05:49:51.494Z,16.40
2022-08-07T05:52:20.677Z,16.50
2022-08-07T05:55:07.286Z,16.40
2022-08-07T05:57:42.804Z,16.50
2022-08-07T06:00:16.628Z,16.50
2022-08-07T06:02:56.459Z,16.50
2022-08-07T06:05:29.802Z,16.60
2022-08-07T06:08:14.612Z,16.70
2022-08-07T06:10:52.037Z,16.90
2022-08-07T06:14:10.689Z,16.80
2022-08-07T06:16:13.506Z,16.80
2022-08-07T06:18:43.303Z,16.90
2022-08-07T06:22:15.983Z,16.90
2022-08-07T06:24:45.354Z,17.00
2022-08-07T06:26:55.920Z,17.10
2022-08-07T06:29:29.579Z,17.30
2022-08-07T06:31:57.092Z,17.30
2022-08-07T06:34:25.747Z,17.30
2022-08-07T06:36:59.667Z,17.30
2022-08-07T06:40:17.844Z,17.40
2022-08-07T06:42:32.942Z,17.30
2022-08-07T06:45:18.059Z,17.40
2022-08-07T06:47:58.471Z,17.50
2022-08-07T06:50:36.057Z,17.60
2022-08-07T06:53:07.342Z,17.70
2022-08-07T06:56:00.841Z,17.60
2022-08-07T06:58:32.127Z,17.80
2022-08-07T07:01:12.452Z,18.00
2022-08-07T07:03:48.241Z,18.10
2022-08-07T07:06:23.746Z,18.10
2022-08-07T07:08:51.042Z,18.30
2022-08-07T07:12:08.195Z,18.30
2022-08-07T07:14:08.571Z,18.50
2022-08-07T07:16:49.637Z,18.50
2022-08-07T07:19:56.579Z,18.60
2022-08-07T07:22:36.056Z,18.50
2022-08-07T07:26:31.248Z,18.60
2022-08-07T07:28:03.366Z,18.70
2022-08-07T07:30:40.063Z,18.80
2022-08-07T07:33:09.020Z,18.70
2022-08-07T07:35:51.868Z,18.80
2022-08-07T07:38:29.484Z,18.80
2022-08-07T07:41:02.364Z,18.90
2022-08-07T07:44:14.019Z,19.00
2022-08-07T07:46:53.334Z,18.90
2022-08-07T07:50:31.356Z,18.90
2022-08-07T07:51:59.615Z,19.00
2022-08-07T07:54:27.541Z,19.20
2022-08-07T07:56:57.410Z,19.30
2022-08-07T07:59:52.080Z,19.50
2022-08-07T08:02:33.576Z,19.60
2022-08-07T08:05:05.502Z,19.60
2022-08-07T08:07:59.942Z,19.70
2022-08-07T08:10:35.753Z,19.90
2022-08-07T08:13:07.350Z,19.90
2022-08-07T08:15:58.117Z,20.00
2022-08-07T08:18:28.427Z,20.00
2022-08-07T08:20:58.548Z,20.00
2022-08-07T08:23:46.918Z,20.00
2022-08-07T08:26:57.058Z,20.10
2022-08-07T08:29:36.698Z,20.20
2022-08-07T08:32:38.243Z,20.20
2022-08-07T08:35:10.158Z,20.40
2022-08-07T08:38:00.606Z,20.50
2022-08-07T08:40:36.032Z,20.60
2022-08-07T08:43:05.783Z,20.60
2022-08-07T08:45:59.607Z,20.60
2022-08-07T08:48:46.768Z,20.70
2022-08-07T08:52:01.099Z,20.80
2022-08-07T08:54:32.951Z,20.80
2022-08-07T08:57:06.805Z,20.70
2022-08-07T08:59:51.193Z,20.90
2022-08-07T09:02:57.776Z,20.90
2022-08-07T09:05:46.752Z,20.80
2022-08-07T09:08:24.332Z,21.00
2022-08-07T09:11:14.001Z,21.00
2022-08-07T09:14:14.561Z,21.20
2022-08-07T09:16:59.905Z,21.40
2022-08-07T09:19:52.811Z,21.40
2022-08-07T09:24:30.370Z,21.40
2022-08-07T09:26:21.701Z,21.20
2022-08-07T09:30:05.999Z,21.40
2022-08-07T09:32:17.058Z,21.50
2022-08-07T09:36:02.953Z,21.60
2022-08-07T09:38:12.062Z,21.80
2022-08-07T09:41:15.781Z,21.90
2022-08-07T09:44:20.021Z,21.90
2022-08-07T09:48:00.067Z,21.90
2022-08-07T09:50:26.589Z,21.90
2022-08-07T09:53:02.887Z,21.90
2022-08-07T09:56:07.726Z,22.00
2022-08-07T09:58:57.815Z,22.10
2022-08-07T10:01:52.325Z,22.10
2022-08-07T10:04:28.244Z,22.00
2022-08-07T10:07:52.364Z,22.00
2022-08-07T10:11:16.974Z,22.30
2022-08-07T10:14:02.337Z,22.30
2022-08-07T10:17:04.195Z,22.20
2022-08-07T10:20:22.152Z,22.30
2022-08-07T10:24:04.844Z,22.30
2022-08-07T10:26:27.329Z,22.30
2022-08-07T10:29:06.906Z,22.40
2022-08-07T10:31:55.719Z,22.50
2022-08-07T10:34:37.399Z,22.50
2022-08-07T10:37:48.122Z,22.60
2022-08-07T10:40:40.079Z,22.60
2022-08-07T10:43:35.627Z,22.70
2022-08-07T10:46:13.474Z,22.50
2022-08-07T10:49:10.648Z,22.50
2022-08-07T10:52:12.946Z,22.70
2022-08-07T10:54:55.239Z,22.80
2022-08-07T10:57:51.573Z,23.10
2022-08-07T11:00:39.762Z,23.20
2022-08-07T11:03:37.916Z,23.00
2022-08-07T11:06:28.769Z,23.00
2022-08-07T11:09:12.304Z,23.00
2022-08-07T11:12:31.588Z,23.10
2022-08-07T11:15:14.434Z,23.30
2022-08-07T11:17:57.117Z,23.40
2022-08-07T11:20:52.754Z,23.70
2022-08-07T11:23:36.402Z,24.00
2022-08-07T11:26:24.697Z,23.80
2022-08-07T11:29:05.616Z,24.20
2022-08-07T11:31:53.630Z,24.50
2022-08-07T11:35:01.290Z,24.80
2022-08-07T11:37:58.164Z,25.30
2022-08-07T11:40:49.831Z,25.80
2022-08-07T11:43:41.745Z,26.30
2022-08-07T11:46:32.659Z,26.70
2022-08-07T11:49:51.538Z,26.60
2022-08-07T11:52:29.122Z,26.50
2022-08-07T11:56:25.101Z,26.60
2022-08-07T11:58:33.351Z,26.80
2022-08-07T12:01:08.372Z,27.20
2022-08-07T12:03:51.738Z,27.20
2022-08-07T12:06:39.959Z,27.50
2022-08-07T12:09:16.662Z,27.80
2022-08-07T12:12:10.950Z,27.90
2022-08-07T12:14:52.691Z,27.80
2022-08-07T12:17:58.565Z,28.00
2022-08-07T12:20:41.640Z,28.40
2022-08-07T12:23:14.674Z,28.60
2022-08-07T12:26:03.467Z,28.40
2022-08-07T12:29:00.611Z,28.30
2022-08-07T12:31:53.315Z,28.50
2022-08-07T12:34:26.695Z,28.70
2022-08-07T12:36:56.516Z,28.90
2022-08-07T12:39:42.479Z,28.50
2022-08-07T12:42:13.115Z,29.00
2022-08-07T12:44:46.384Z,29.50
2022-08-07T12:47:30.996Z,29.70
2022-08-07T12:50:48.699Z,30.00
2022-08-07T12:54:02.675Z,30.10
2022-08-07T12:56:34.862Z,30.10
2022-08-07T12:59:08.449Z,29.70
2022-08-07T13:02:03.287Z,29.80
2022-08-07T13:05:01.659Z,29.60
2022-08-07T13:08:12.581Z,29.60
2022-08-07T13:10:54.682Z,29.80
2022-08-07T13:13:46.996Z,29.80
2022-08-07T13:16:17.425Z,30.00
2022-08-07T13:19:45.929Z,30.30
2022-08-07T13:22:27.521Z,30.30
2022-08-07T13:25:02.856Z,30.30
2022-08-07T13:28:12.658Z,30.50
2022-08-07T13:30:41.186Z,30.80
2022-08-07T13:34:33.539Z,31.00
2022-08-07T13:36:43.429Z,31.10
2022-08-07T13:39:28.459Z,31.10
2022-08-07T13:42:21.666Z,30.50
2022-08-07T13:45:20.772Z,30.50
2022-08-07T13:48:06.605Z,31.00
2022-08-07T13:50:45.138Z,31.70
2022-08-07T13:53:23.915Z,31.20
2022-08-07T13:55:54.875Z,30.40
2022-08-07T13:58:56.093Z,30.90
2022-08-07T14:01:26.322Z,30.90
2022-08-07T14:04:07.079Z,31.80
2022-08-07T14:06:39.166Z,31.80
2022-08-07T14:10:03.043Z,31.80
2022-08-07T14:12:08.058Z,31.70
2022-08-07T14:14:44.033Z,30.80
2022-08-07T14:18:13.598Z,31.40
2022-08-07T14:22:40.944Z,31.60
2022-08-07T14:23:58.724Z,31.50
2022-08-07T14:26:29.788Z,32.00
2022-08-07T14:29:05.986Z,32.20
2022-08-07T14:31:42.265Z,31.80
2022-08-07T14:34:19.933Z,32.00
2022-08-07T14:36:56.197Z,32.50
2022-08-07T14:40:18.044Z,32.60
2022-08-07T14:42:20.048Z,32.40
2022-08-07T14:44:53.606Z,32.30
2022-08-07T14:47:23.688Z,31.80
2022-08-07T14:52:42.951Z,30.60
2022-08-07T14:55:17.769Z,30.10
2022-08-07T15:00:43.255Z,28.90
2022-08-07T15:03:18.821Z,28.40
2022-08-07T15:05:54.673Z,28.00
2022-08-07T15:08:34.479Z,27.80
2022-08-07T15:11:15.097Z,27.50
2022-08-07T15:13:58.446Z,27.30
2022-08-07T15:16:54.767Z,27.10
2022-08-07T15:22:29.111Z,27.00
2022-08-07T15:25:13.286Z,26.80
2022-08-07T15:31:04.485Z,26.80
2022-08-07T15:33:33.870Z,26.70
2022-08-07T15:36:06.157Z,26.50
2022-08-07T15:38:59.297Z,26.50
2022-08-07T15:42:43.485Z,26.50
2022-08-07T15:44:18.292Z,26.50
2022-08-07T15:46:55.267Z,26.40
2022-08-07T15:50:04.159Z,26.20
2022-08-07T15:52:21.657Z,26.00
2022-08-07T15:55:02.775Z,25.90
2022-08-07T15:57:48.057Z,26.10
2022-08-07T16:00:31.847Z,26.20
2022-08-07T16:03:21.624Z,26.10
2022-08-07T16:06:01.842Z,26.00
2022-08-07T16:08:38.564Z,26.10
2022-08-07T16:11:26.616Z,26.10
2022-08-07T16:14:12.007Z,26.10
2022-08-07T16:16:57.139Z,26.10
2022-08-07T16:19:59.552Z,26.10
2022-08-07T16:22:37.885Z,26.00
2022-08-07T16:25:52.752Z,26.00
2022-08-07T16:30:07.140Z,26.00
2022-08-07T16:31:57.337Z,26.00
2022-08-07T16:34:42.120Z,25.90
2022-08-07T16:38:06.431Z,25.80
2022-08-07T16:40:32.089Z,25.80
2022-08-07T16:43:13.736Z,25.70
2022-08-07T16:46:34.669Z,25.70
2022-08-07T16:50:29.403Z,25.60
2022-08-07T16:52:55.691Z,25.50
2022-08-07T16:55:43.657Z,25.40
2022-08-07T16:59:10.060Z,25.40
2022-08-07T17:02:11.367Z,25.40
2022-08-07T17:06:28.828Z,25.40
2022-08-07T17:08:06.127Z,25.40
2022-08-07T17:10:54.683Z,25.30
2022-08-07T17:13:41.853Z,25.20
2022-08-07T17:16:15.636Z,25.30
2022-08-07T17:18:59.528Z,25.20
2022-08-07T17:21:51.675Z,25.10
2022-08-07T17:24:48.879Z,24.90
2022-08-07T17:27:50.685Z,24.90
2022-08-07T17:30:20.477Z,24.90
2022-08-07T17:34:10.256Z,24.80
2022-08-07T17:36:20.523Z,24.80
2022-08-07T17:39:10.579Z,24.70
2022-08-07T17:42:03.551Z,24.60
2022-08-07T17:44:45.607Z,24.50
2022-08-07T17:47:39.809Z,24.60
2022-08-07T17:50:16.433Z,24.40
2022-08-07T17:52:55.342Z,24.30
2022-08-07T17:55:55.972Z,24.20
2022-08-07T17:58:54.739Z,24.20
2022-08-07T18:01:40.670Z,24.10
2022-08-07T18:04:34.791Z,24.00
2022-08-07T18:07:20.044Z,24.10
2022-08-07T18:10:06.349Z,23.80
2022-08-07T18:12:54.827Z,23.70
2022-08-07T18:15:35.685Z,23.70
2022-08-07T18:18:44.950Z,23.70
2022-08-07T18:21:28.753Z,23.70
2022-08-07T18:24:07.562Z,23.50
2022-08-07T18:26:51.839Z,23.50
2022-08-07T18:30:04.383Z,23.30
2022-08-07T18:32:48.583Z,23.20
2022-08-07T18:35:51.538Z,23.20
2022-08-07T18:38:54.780Z,23.20
2022-08-07T18:41:59.030Z,23.10
2022-08-07T18:45:43.275Z,23.10
2022-08-07T18:48:08.029Z,23.00
2022-08-07T18:50:55.669Z,23.00
2022-08-07T18:53:43.558Z,22.90
2022-08-07T18:56:39.614Z,22.80
2022-08-07T18:59:59.098Z,22.70
2022-08-07T19:02:43.828Z,22.70
2022-08-07T19:05:20.105Z,22.70
2022-08-07T19:07:59.611Z,22.60
2022-08-07T19:10:55.376Z,22.50
2022-08-07T19:13:35.562Z,22.40
2022-08-07T19:17:04.638Z,22.30
2022-08-07T19:19:13.224Z,22.20
2022-08-07T19:21:56.842Z,22.00
2022-08-07T19:24:44.543Z,22.00
2022-08-07T19:28:57.381Z,22.00
2022-08-07T19:31:06.291Z,21.90
2022-08-07T19:33:13.379Z,22.00
2022-08-07T19:35:51.765Z,21.80
2022-08-07T19:38:22.698Z,21.80
2022-08-07T19:40:51.882Z,21.80
2022-08-07T19:43:49.135Z,21.70
2022-08-07T19:46:16.095Z,21.70
2022-08-07T19:48:53.718Z,21.60
2022-08-07T19:51:50.608Z,21.60
2022-08-07T19:54:33.749Z,21.60
2022-08-07T19:58:02.926Z,21.50
2022-08-07T19:59:56.026Z,21.40
2022-08-07T20:02:38.921Z,21.30
2022-08-07T20:05:12.497Z,21.20
2022-08-07T20:07:48.214Z,21.20
2022-08-07T20:10:36.578Z,21.10
2022-08-07T20:13:23.301Z,21.20
2022-08-07T20:15:54.836Z,21.20
2022-08-07T20:18:31.925Z,21.20
2022-08-07T20:21:03.491Z,21.20
2022-08-07T20:23:53.878Z,21.10
2022-08-07T20:26:32.139Z,21.10
2022-08-07T20:29:10.232Z,21.10
2022-08-07T20:31:46.419Z,21.00
2022-08-07T20:34:39.935Z,21.00
2022-08-07T20:37:09.614Z,21.00
2022-08-07T20:40:04.214Z,20.90
2022-08-07T20:42:29.029Z,20.90
2022-08-07T20:44:59.592Z,20.90
2022-08-07T20:47:56.492Z,20.90
2022-08-07T20:50:20.345Z,20.90
2022-08-07T20:52:51.633Z,20.90
2022-08-07T20:55:23.626Z,20.90
2022-08-07T20:57:59.990Z,20.80
2022-08-07T21:00:46.042Z,20.80
2022-08-07T21:03:16.193Z,20.90
2022-08-07T21:06:03.669Z,20.70
2022-08-07T21:09:03.523Z,20.60
2022-08-07T21:11:50.514Z,20.60
2022-08-07T21:14:32.047Z,20.50
2022-08-07T21:18:01.770Z,20.50
2022-08-07T21:20:05.186Z,20.50
2022-08-07T21:22:53.526Z,20.50
2022-08-07T21:25:56.277Z,20.40
2022-08-07T21:28:48.324Z,20.40
2022-08-07T21:31:50.153Z,20.20
2022-08-07T21:34:32.184Z,20.20
2022-08-07T21:37:08.471Z,20.30
2022-08-07T21:39:46.363Z,20.20
2022-08-07T21:42:42.417Z,20.20
2022-08-07T21:46:09.387Z,20.00
2022-08-07T21:48:27.589Z,20.10
2022-08-07T21:51:20.410Z,20.00
2022-08-07T21:53:54.832Z,20.00
2022-08-07T21:56:47.231Z,19.90
2022-08-07T22:00:04.627Z,20.00
2022-08-07T22:02:57.293Z,19.90
2022-08-07T22:05:44.346Z,19.90
2022-08-07T22:08:18.515Z,19.80
2022-08-07T22:10:51.112Z,19.80
2022-08-07T22:13:24.208Z,19.80
2022-08-07T22:16:43.091Z,19.90
2022-08-07T22:19:20.135Z,19.80
2022-08-07T22:22:21.013Z,19.70
2022-08-07T22:25:08.202Z,19.70
2022-08-07T22:28:29.735Z,19.70
2022-08-07T22:31:06.868Z,19.70
2022-08-07T22:33:56.157Z,19.60
2022-08-07T22:37:12.340Z,19.60
2022-08-07T22:40:11.204Z,19.60
2022-08-07T22:42:44.475Z,19.60
2022-08-07T22:46:21.341Z,19.60
2022-08-07T22:48:54.615Z,19.50
2022-08-07T22:51:20.242Z,19.60
2022-08-07T22:54:08.049Z,19.50
2022-08-07T22:56:36.828Z,19.60
2022-08-07T22:59:39.078Z,19.50
2022-08-07T23:02:31.695Z,19.40
2022-08-07T23:06:08.981Z,19.40
2022-08-07T23:08:51.622Z,19.40
2022-08-07T23:11:49.396Z,19.30
2022-08-07T23:14:36.211Z,19.40
2022-08-07T23:17:30.950Z,19.40
2022-08-07T23:20:52.319Z,19.30
2022-08-07T23:24:06.298Z,19.20
2022-08-07T23:26:23.445Z,19.10
2022-08-07T23:29:43.296Z,19.20
2022-08-07T23:34:20.965Z,19.10
2022-08-07T23:35:23.224Z,19.00
2022-08-07T23:38:04.851Z,19.00
2022-08-07T23:40:41.865Z,19.20
2022-08-07T23:43:44.257Z,19.20
2022-08-07T23:46:34.707Z,19.00
2022-08-07T23:49:15.902Z,19.10
2022-08-07T23:52:59.570Z,19.10
2022-08-07T23:54:59.634Z,19.00
2022-08-07T23:57:52.730Z,19.00
